Terminal Aerodrome Forecast
Issued by NWS

Home | Current Version | Previous Version | Graphics & Text | Print | Product List | Glossary On
Versions: 1 2 3 4 5 6 7 8 9 10 11 12
000
FTUS43 KMPX 090500
TAFAXN
TAF
KAXN 090520Z 0906/1006 31005KT P6SM FEW070
     FM091500 33009KT 6SM FU VV120
     FM100100 VRB03KT P6SM SKC=

USA.gov is the U.S. government's official web portal to all federal, state and local government web resources and services.